sensor_id;sensor_type;location;lat;lon;timestamp;P1;durP1;ratioP1;P2;durP2;ratioP2
55672;SDS011;41554;45.366;20.400;2023-04-24T00:00:55;7.80;;;5.18;;
55672;SDS011;41554;45.366;20.400;2023-04-24T00:03:24;10.30;;;5.32;;
55672;SDS011;41554;45.366;20.400;2023-04-24T00:05:51;9.57;;;5.90;;
55672;SDS011;41554;45.366;20.400;2023-04-24T00:08:17;11.80;;;8.05;;
55672;SDS011;41554;45.366;20.400;2023-04-24T00:10:43;26.55;;;21.02;;
55672;SDS011;41554;45.366;20.400;2023-04-24T00:13:09;13.57;;;10.35;;
55672;SDS011;41554;45.366;20.400;2023-04-24T00:15:35;11.75;;;7.43;;
55672;SDS011;41554;45.366;20.400;2023-04-24T00:18:01;17.83;;;7.68;;
55672;SDS011;41554;45.366;20.400;2023-04-24T00:20:27;10.65;;;6.85;;
55672;SDS011;41554;45.366;20.400;2023-04-24T00:22:54;6.38;;;5.78;;
55672;SDS011;41554;45.366;20.400;2023-04-24T00:25:20;10.20;;;5.30;;
55672;SDS011;41554;45.366;20.400;2023-04-24T00:27:46;9.65;;;7.50;;
55672;SDS011;41554;45.366;20.400;2023-04-24T00:30:12;19.35;;;13.60;;
55672;SDS011;41554;45.366;20.400;2023-04-24T00:32:38;27.85;;;16.83;;
55672;SDS011;41554;45.366;20.400;2023-04-24T00:35:05;24.10;;;12.10;;
55672;SDS011;41554;45.366;20.400;2023-04-24T00:37:31;35.13;;;26.15;;
55672;SDS011;41554;45.366;20.400;2023-04-24T00:39:57;32.28;;;19.10;;
55672;SDS011;41554;45.366;20.400;2023-04-24T00:42:23;14.55;;;11.30;;
55672;SDS011;41554;45.366;20.400;2023-04-24T00:44:50;9.48;;;6.00;;
55672;SDS011;41554;45.366;20.400;2023-04-24T00:47:16;12.18;;;6.50;;
55672;SDS011;41554;45.366;20.400;2023-04-24T00:49:43;10.27;;;5.75;;
55672;SDS011;41554;45.366;20.400;2023-04-24T00:52:09;5.82;;;5.10;;
55672;SDS011;41554;45.366;20.400;2023-04-24T00:54:35;7.18;;;5.07;;
55672;SDS011;41554;45.366;20.400;2023-04-24T00:57:04;10.73;;;7.18;;
55672;SDS011;41554;45.366;20.400;2023-04-24T00:59:30;12.25;;;8.57;;
55672;SDS011;41554;45.366;20.400;2023-04-24T01:01:57;10.38;;;6.18;;
55672;SDS011;41554;45.366;20.400;2023-04-24T01:04:23;11.35;;;8.75;;
55672;SDS011;41554;45.366;20.400;2023-04-24T01:06:51;18.80;;;7.40;;
55672;SDS011;41554;45.366;20.400;2023-04-24T01:09:17;13.02;;;8.55;;
55672;SDS011;41554;45.366;20.400;2023-04-24T01:11:43;11.77;;;8.30;;
55672;SDS011;41554;45.366;20.400;2023-04-24T01:14:10;28.98;;;17.17;;
55672;SDS011;41554;45.366;20.400;2023-04-24T01:16:36;34.05;;;21.58;;
55672;SDS011;41554;45.366;20.400;2023-04-24T01:19:03;32.88;;;25.30;;
55672;SDS011;41554;45.366;20.400;2023-04-24T01:21:29;29.30;;;22.13;;
55672;SDS011;41554;45.366;20.400;2023-04-24T01:23:56;36.30;;;21.50;;
55672;SDS011;41554;45.366;20.400;2023-04-24T01:26:22;22.35;;;19.00;;
55672;SDS011;41554;45.366;20.400;2023-04-24T01:28:50;31.50;;;20.88;;
55672;SDS011;41554;45.366;20.400;2023-04-24T01:31:17;26.88;;;13.15;;
55672;SDS011;41554;45.366;20.400;2023-04-24T01:33:43;21.15;;;15.48;;
55672;SDS011;41554;45.366;20.400;2023-04-24T01:36:10;24.80;;;16.30;;
55672;SDS011;41554;45.366;20.400;2023-04-24T01:38:37;23.65;;;14.63;;
55672;SDS011;41554;45.366;20.400;2023-04-24T01:41:03;31.33;;;16.00;;
55672;SDS011;41554;45.366;20.400;2023-04-24T01:43:29;22.33;;;12.38;;
55672;SDS011;41554;45.366;20.400;2023-04-24T01:45:55;9.68;;;7.30;;
55672;SDS011;41554;45.366;20.400;2023-04-24T01:48:21;13.40;;;6.43;;
55672;SDS011;41554;45.366;20.400;2023-04-24T01:50:47;11.63;;;5.78;;
55672;SDS011;41554;45.366;20.400;2023-04-24T01:53:14;19.63;;;9.45;;
55672;SDS011;41554;45.366;20.400;2023-04-24T01:55:40;12.98;;;9.98;;
55672;SDS011;41554;45.366;20.400;2023-04-24T01:58:06;23.80;;;13.30;;
55672;SDS011;41554;45.366;20.400;2023-04-24T02:00:32;27.95;;;22.80;;
55672;SDS011;41554;45.366;20.400;2023-04-24T02:02:59;51.97;;;32.72;;
55672;SDS011;41554;45.366;20.400;2023-04-24T02:05:26;22.33;;;13.10;;
55672;SDS011;41554;45.366;20.400;2023-04-24T02:07:53;7.65;;;5.65;;
55672;SDS011;41554;45.366;20.400;2023-04-24T02:10:19;8.40;;;6.15;;
55672;SDS011;41554;45.366;20.400;2023-04-24T02:12:45;14.15;;;6.20;;
55672;SDS011;41554;45.366;20.400;2023-04-24T02:15:11;9.38;;;6.53;;
55672;SDS011;41554;45.366;20.400;2023-04-24T02:17:37;11.88;;;7.28;;
55672;SDS011;41554;45.366;20.400;2023-04-24T02:20:04;30.75;;;18.63;;
55672;SDS011;41554;45.366;20.400;2023-04-24T02:22:30;7.60;;;6.20;;
55672;SDS011;41554;45.366;20.400;2023-04-24T02:24:56;10.40;;;5.18;;
55672;SDS011;41554;45.366;20.400;2023-04-24T02:27:22;8.80;;;6.78;;
55672;SDS011;41554;45.366;20.400;2023-04-24T02:29:48;7.20;;;5.70;;
55672;SDS011;41554;45.366;20.400;2023-04-24T02:32:14;11.65;;;5.57;;
55672;SDS011;41554;45.366;20.400;2023-04-24T02:34:41;7.22;;;5.90;;
55672;SDS011;41554;45.366;20.400;2023-04-24T02:37:07;9.77;;;6.13;;
55672;SDS011;41554;45.366;20.400;2023-04-24T02:39:33;7.63;;;6.18;;
55672;SDS011;41554;45.366;20.400;2023-04-24T02:41:59;9.73;;;7.32;;
55672;SDS011;41554;45.366;20.400;2023-04-24T02:44:26;11.27;;;7.40;;
55672;SDS011;41554;45.366;20.400;2023-04-24T02:46:52;8.43;;;6.75;;
55672;SDS011;41554;45.366;20.400;2023-04-24T02:49:18;11.30;;;6.15;;
55672;SDS011;41554;45.366;20.400;2023-04-24T02:51:44;13.43;;;6.10;;
55672;SDS011;41554;45.366;20.400;2023-04-24T02:54:10;17.23;;;7.00;;
55672;SDS011;41554;45.366;20.400;2023-04-24T02:56:36;7.65;;;6.38;;
55672;SDS011;41554;45.366;20.400;2023-04-24T02:59:02;8.30;;;7.00;;
55672;SDS011;41554;45.366;20.400;2023-04-24T03:01:29;10.77;;;6.82;;
55672;SDS011;41554;45.366;20.400;2023-04-24T03:03:55;11.43;;;7.68;;
55672;SDS011;41554;45.366;20.400;2023-04-24T03:06:21;13.90;;;6.55;;
55672;SDS011;41554;45.366;20.400;2023-04-24T03:08:47;12.63;;;6.78;;
55672;SDS011;41554;45.366;20.400;2023-04-24T03:11:13;9.88;;;5.95;;
55672;SDS011;41554;45.366;20.400;2023-04-24T03:13:39;8.38;;;6.10;;
55672;SDS011;41554;45.366;20.400;2023-04-24T03:16:05;11.98;;;5.97;;
55672;SDS011;41554;45.366;20.400;2023-04-24T03:18:31;6.50;;;5.53;;
55672;SDS011;41554;45.366;20.400;2023-04-24T03:20:57;11.75;;;7.72;;
55672;SDS011;41554;45.366;20.400;2023-04-24T03:23:24;10.20;;;7.35;;
55672;SDS011;41554;45.366;20.400;2023-04-24T03:25:50;11.70;;;7.75;;
55672;SDS011;41554;45.366;20.400;2023-04-24T03:28:16;7.78;;;6.28;;
55672;SDS011;41554;45.366;20.400;2023-04-24T03:30:42;7.57;;;5.65;;
55672;SDS011;41554;45.366;20.400;2023-04-24T03:33:08;8.35;;;6.05;;
55672;SDS011;41554;45.366;20.400;2023-04-24T03:35:34;8.43;;;6.15;;
55672;SDS011;41554;45.366;20.400;2023-04-24T03:38:01;9.32;;;6.53;;
55672;SDS011;41554;45.366;20.400;2023-04-24T03:40:29;10.85;;;7.97;;
55672;SDS011;41554;45.366;20.400;2023-04-24T03:42:55;9.00;;;6.95;;
55672;SDS011;41554;45.366;20.400;2023-04-24T03:45:21;9.50;;;7.43;;
55672;SDS011;41554;45.366;20.400;2023-04-24T03:47:47;9.90;;;7.30;;
55672;SDS011;41554;45.366;20.400;2023-04-24T03:50:13;11.60;;;7.15;;
55672;SDS011;41554;45.366;20.400;2023-04-24T03:52:39;10.80;;;7.18;;
55672;SDS011;41554;45.366;20.400;2023-04-24T03:55:06;10.88;;;8.55;;
55672;SDS011;41554;45.366;20.400;2023-04-24T03:57:32;9.48;;;6.63;;
55672;SDS011;41554;45.366;20.400;2023-04-24T03:59:58;51.90;;;32.58;;
55672;SDS011;41554;45.366;20.400;2023-04-24T04:02:24;17.15;;;13.48;;
55672;SDS011;41554;45.366;20.400;2023-04-24T04:04:51;29.38;;;20.02;;
55672;SDS011;41554;45.366;20.400;2023-04-24T04:07:17;13.20;;;11.15;;
55672;SDS011;41554;45.366;20.400;2023-04-24T04:09:43;9.68;;;7.95;;
55672;SDS011;41554;45.366;20.400;2023-04-24T04:12:09;16.45;;;7.55;;
55672;SDS011;41554;45.366;20.400;2023-04-24T04:14:35;9.82;;;6.28;;
55672;SDS011;41554;45.366;20.400;2023-04-24T04:17:01;6.75;;;5.82;;
55672;SDS011;41554;45.366;20.400;2023-04-24T04:19:27;8.45;;;6.78;;
55672;SDS011;41554;45.366;20.400;2023-04-24T04:21:53;9.73;;;7.35;;
55672;SDS011;41554;45.366;20.400;2023-04-24T04:24:21;18.40;;;8.02;;
55672;SDS011;41554;45.366;20.400;2023-04-24T04:26:47;7.55;;;6.38;;
55672;SDS011;41554;45.366;20.400;2023-04-24T04:29:16;11.93;;;7.60;;
55672;SDS011;41554;45.366;20.400;2023-04-24T04:31:45;7.57;;;6.23;;
55672;SDS011;41554;45.366;20.400;2023-04-24T04:34:11;12.20;;;7.75;;
55672;SDS011;41554;45.366;20.400;2023-04-24T04:36:38;9.82;;;5.95;;
55672;SDS011;41554;45.366;20.400;2023-04-24T04:39:05;10.85;;;7.35;;
55672;SDS011;41554;45.366;20.400;2023-04-24T04:41:31;9.45;;;7.30;;
55672;SDS011;41554;45.366;20.400;2023-04-24T04:43:57;9.88;;;7.35;;
55672;SDS011;41554;45.366;20.400;2023-04-24T04:46:23;10.02;;;5.95;;
55672;SDS011;41554;45.366;20.400;2023-04-24T04:48:52;9.52;;;6.38;;
55672;SDS011;41554;45.366;20.400;2023-04-24T04:51:18;8.82;;;6.50;;
55672;SDS011;41554;45.366;20.400;2023-04-24T04:53:44;8.55;;;6.45;;
55672;SDS011;41554;45.366;20.400;2023-04-24T04:56:10;14.13;;;10.05;;
55672;SDS011;41554;45.366;20.400;2023-04-24T04:58:36;20.63;;;14.65;;
55672;SDS011;41554;45.366;20.400;2023-04-24T05:01:02;33.70;;;17.73;;
55672;SDS011;41554;45.366;20.400;2023-04-24T05:03:28;31.50;;;23.67;;
55672;SDS011;41554;45.366;20.400;2023-04-24T05:05:54;19.35;;;13.85;;
55672;SDS011;41554;45.366;20.400;2023-04-24T05:08:20;21.58;;;11.85;;
55672;SDS011;41554;45.366;20.400;2023-04-24T05:10:46;7.53;;;6.57;;
55672;SDS011;41554;45.366;20.400;2023-04-24T05:13:12;14.07;;;7.97;;
55672;SDS011;41554;45.366;20.400;2023-04-24T05:15:39;15.38;;;8.43;;
55672;SDS011;41554;45.366;20.400;2023-04-24T05:18:05;10.50;;;8.65;;
55672;SDS011;41554;45.366;20.400;2023-04-24T05:20:31;9.57;;;7.20;;
55672;SDS011;41554;45.366;20.400;2023-04-24T05:22:57;12.68;;;6.43;;
55672;SDS011;41554;45.366;20.400;2023-04-24T05:25:23;6.20;;;5.40;;
55672;SDS011;41554;45.366;20.400;2023-04-24T05:27:50;16.48;;;7.05;;
55672;SDS011;41554;45.366;20.400;2023-04-24T05:30:16;8.65;;;6.35;;
55672;SDS011;41554;45.366;20.400;2023-04-24T05:32:42;9.02;;;4.95;;
55672;SDS011;41554;45.366;20.400;2023-04-24T05:35:08;8.07;;;5.40;;
55672;SDS011;41554;45.366;20.400;2023-04-24T05:37:34;10.07;;;6.13;;
55672;SDS011;41554;45.366;20.400;2023-04-24T05:40:00;6.88;;;5.80;;
55672;SDS011;41554;45.366;20.400;2023-04-24T05:42:26;7.05;;;5.00;;
55672;SDS011;41554;45.366;20.400;2023-04-24T05:44:52;11.30;;;5.90;;
55672;SDS011;41554;45.366;20.400;2023-04-24T05:47:19;5.97;;;5.38;;
55672;SDS011;41554;45.366;20.400;2023-04-24T05:49:47;8.75;;;5.65;;
55672;SDS011;41554;45.366;20.400;2023-04-24T05:52:13;9.63;;;6.35;;
55672;SDS011;41554;45.366;20.400;2023-04-24T05:54:39;9.30;;;5.40;;
55672;SDS011;41554;45.366;20.400;2023-04-24T05:57:05;11.25;;;6.30;;
55672;SDS011;41554;45.366;20.400;2023-04-24T05:59:36;8.23;;;5.82;;
55672;SDS011;41554;45.366;20.400;2023-04-24T06:02:03;9.38;;;5.68;;
55672;SDS011;41554;45.366;20.400;2023-04-24T06:04:29;8.15;;;6.32;;
55672;SDS011;41554;45.366;20.400;2023-04-24T06:06:56;18.10;;;8.15;;
55672;SDS011;41554;45.366;20.400;2023-04-24T06:09:22;9.57;;;6.93;;
55672;SDS011;41554;45.366;20.400;2023-04-24T06:11:49;25.70;;;14.00;;
55672;SDS011;41554;45.366;20.400;2023-04-24T06:14:17;8.75;;;7.28;;
55672;SDS011;41554;45.366;20.400;2023-04-24T06:16:43;9.02;;;6.60;;
55672;SDS011;41554;45.366;20.400;2023-04-24T06:19:09;7.75;;;5.72;;
55672;SDS011;41554;45.366;20.400;2023-04-24T06:21:35;11.63;;;7.55;;
55672;SDS011;41554;45.366;20.400;2023-04-24T06:24:01;8.82;;;7.28;;
55672;SDS011;41554;45.366;20.400;2023-04-24T06:26:28;6.43;;;5.13;;
55672;SDS011;41554;45.366;20.400;2023-04-24T06:28:54;10.05;;;6.03;;
55672;SDS011;41554;45.366;20.400;2023-04-24T06:31:21;17.55;;;6.57;;
55672;SDS011;41554;45.366;20.400;2023-04-24T06:33:48;9.98;;;5.18;;
55672;SDS011;41554;45.366;20.400;2023-04-24T06:36:14;15.45;;;10.32;;
55672;SDS011;41554;45.366;20.400;2023-04-24T06:38:41;27.00;;;10.48;;
55672;SDS011;41554;45.366;20.400;2023-04-24T06:41:07;18.50;;;7.97;;
55672;SDS011;41554;45.366;20.400;2023-04-24T06:43:34;9.70;;;6.68;;
55672;SDS011;41554;45.366;20.400;2023-04-24T06:46:00;10.18;;;7.25;;
55672;SDS011;41554;45.366;20.400;2023-04-24T06:48:28;8.70;;;6.63;;
55672;SDS011;41554;45.366;20.400;2023-04-24T06:50:54;9.68;;;6.82;;
55672;SDS011;41554;45.366;20.400;2023-04-24T06:53:20;8.18;;;5.63;;
55672;SDS011;41554;45.366;20.400;2023-04-24T06:55:46;9.18;;;5.78;;
55672;SDS011;41554;45.366;20.400;2023-04-24T06:58:13;7.82;;;6.10;;
55672;SDS011;41554;45.366;20.400;2023-04-24T07:00:40;12.57;;;5.63;;
55672;SDS011;41554;45.366;20.400;2023-04-24T07:03:06;10.23;;;6.32;;
55672;SDS011;41554;45.366;20.400;2023-04-24T07:05:32;8.20;;;6.18;;
55672;SDS011;41554;45.366;20.400;2023-04-24T07:08:02;7.72;;;6.88;;
55672;SDS011;41554;45.366;20.400;2023-04-24T07:10:28;9.20;;;6.72;;
55672;SDS011;41554;45.366;20.400;2023-04-24T07:12:55;15.43;;;7.63;;
55672;SDS011;41554;45.366;20.400;2023-04-24T07:15:21;14.57;;;8.13;;
55672;SDS011;41554;45.366;20.400;2023-04-24T07:17:48;8.32;;;5.55;;
55672;SDS011;41554;45.366;20.400;2023-04-24T07:20:15;17.08;;;9.52;;
55672;SDS011;41554;45.366;20.400;2023-04-24T07:22:41;12.30;;;10.75;;
55672;SDS011;41554;45.366;20.400;2023-04-24T07:25:07;11.60;;;8.98;;
55672;SDS011;41554;45.366;20.400;2023-04-24T07:27:34;10.88;;;7.95;;
55672;SDS011;41554;45.366;20.400;2023-04-24T07:30:01;12.25;;;9.07;;
55672;SDS011;41554;45.366;20.400;2023-04-24T07:32:28;9.50;;;8.02;;
55672;SDS011;41554;45.366;20.400;2023-04-24T07:34:54;9.25;;;6.30;;
55672;SDS011;41554;45.366;20.400;2023-04-24T07:37:20;9.35;;;7.88;;
55672;SDS011;41554;45.366;20.400;2023-04-24T07:39:47;8.85;;;6.30;;
55672;SDS011;41554;45.366;20.400;2023-04-24T07:42:13;7.70;;;6.43;;
55672;SDS011;41554;45.366;20.400;2023-04-24T07:44:39;12.77;;;7.88;;
55672;SDS011;41554;45.366;20.400;2023-04-24T07:47:05;8.98;;;7.85;;
55672;SDS011;41554;45.366;20.400;2023-04-24T07:49:32;8.30;;;6.85;;
55672;SDS011;41554;45.366;20.400;2023-04-24T07:51:59;11.07;;;7.05;;
55672;SDS011;41554;45.366;20.400;2023-04-24T07:54:27;18.20;;;8.82;;
55672;SDS011;41554;45.366;20.400;2023-04-24T07:56:53;10.23;;;7.82;;
55672;SDS011;41554;45.366;20.400;2023-04-24T07:59:19;10.85;;;7.25;;
55672;SDS011;41554;45.366;20.400;2023-04-24T08:01:45;10.20;;;7.65;;
55672;SDS011;41554;45.366;20.400;2023-04-24T08:04:11;17.70;;;11.18;;
55672;SDS011;41554;45.366;20.400;2023-04-24T08:06:37;17.60;;;9.90;;
55672;SDS011;41554;45.366;20.400;2023-04-24T08:09:03;11.55;;;8.20;;
55672;SDS011;41554;45.366;20.400;2023-04-24T08:11:30;11.43;;;9.13;;
55672;SDS011;41554;45.366;20.400;2023-04-24T08:13:56;11.25;;;8.93;;
55672;SDS011;41554;45.366;20.400;2023-04-24T08:16:22;20.25;;;10.77;;
55672;SDS011;41554;45.366;20.400;2023-04-24T08:18:49;24.42;;;18.95;;
55672;SDS011;41554;45.366;20.400;2023-04-24T08:21:15;20.75;;;15.38;;
55672;SDS011;41554;45.366;20.400;2023-04-24T08:23:43;13.48;;;10.43;;
55672;SDS011;41554;45.366;20.400;2023-04-24T08:26:09;30.80;;;17.77;;
55672;SDS011;41554;45.366;20.400;2023-04-24T08:28:36;45.60;;;33.85;;
55672;SDS011;41554;45.366;20.400;2023-04-24T08:31:02;29.52;;;20.80;;
55672;SDS011;41554;45.366;20.400;2023-04-24T08:33:28;28.13;;;18.52;;
55672;SDS011;41554;45.366;20.400;2023-04-24T08:36:05;26.52;;;16.17;;
55672;SDS011;41554;45.366;20.400;2023-04-24T08:38:31;17.75;;;13.18;;
55672;SDS011;41554;45.366;20.400;2023-04-24T08:40:58;27.08;;;21.58;;
55672;SDS011;41554;45.366;20.400;2023-04-24T08:43:25;39.35;;;29.45;;
55672;SDS011;41554;45.366;20.400;2023-04-24T08:45:51;57.22;;;40.22;;
55672;SDS011;41554;45.366;20.400;2023-04-24T08:48:18;61.28;;;35.30;;
55672;SDS011;41554;45.366;20.400;2023-04-24T08:50:44;70.45;;;46.88;;
55672;SDS011;41554;45.366;20.400;2023-04-24T08:53:10;58.55;;;43.08;;
55672;SDS011;41554;45.366;20.400;2023-04-24T08:55:37;65.55;;;40.67;;
55672;SDS011;41554;45.366;20.400;2023-04-24T08:58:03;67.15;;;42.53;;
55672;SDS011;41554;45.366;20.400;2023-04-24T09:00:30;39.03;;;27.13;;
55672;SDS011;41554;45.366;20.400;2023-04-24T09:02:56;12.98;;;9.93;;
55672;SDS011;41554;45.366;20.400;2023-04-24T09:05:22;13.32;;;9.63;;
55672;SDS011;41554;45.366;20.400;2023-04-24T09:07:55;41.00;;;29.25;;
55672;SDS011;41554;45.366;20.400;2023-04-24T09:10:23;26.13;;;16.20;;
55672;SDS011;41554;45.366;20.400;2023-04-24T09:12:50;18.48;;;13.35;;
55672;SDS011;41554;45.366;20.400;2023-04-24T09:15:16;29.73;;;21.05;;
55672;SDS011;41554;45.366;20.400;2023-04-24T09:17:43;18.23;;;13.00;;
55672;SDS011;41554;45.366;20.400;2023-04-24T09:20:09;16.15;;;14.43;;
55672;SDS011;41554;45.366;20.400;2023-04-24T09:22:36;15.48;;;11.25;;
55672;SDS011;41554;45.366;20.400;2023-04-24T09:25:06;32.72;;;14.55;;
55672;SDS011;41554;45.366;20.400;2023-04-24T09:27:35;69.28;;;38.25;;
55672;SDS011;41554;45.366;20.400;2023-04-24T09:30:01;22.17;;;14.38;;
55672;SDS011;41554;45.366;20.400;2023-04-24T09:32:28;12.27;;;10.75;;
55672;SDS011;41554;45.366;20.400;2023-04-24T09:37:35;15.32;;;11.63;;
55672;SDS011;41554;45.366;20.400;2023-04-24T09:40:08;13.57;;;10.90;;
55672;SDS011;41554;45.366;20.400;2023-04-24T09:42:36;12.85;;;8.40;;
55672;SDS011;41554;45.366;20.400;2023-04-24T09:45:02;12.45;;;9.27;;
55672;SDS011;41554;45.366;20.400;2023-04-24T09:47:35;10.32;;;9.10;;
55672;SDS011;41554;45.366;20.400;2023-04-24T09:50:08;15.90;;;10.38;;
55672;SDS011;41554;45.366;20.400;2023-04-24T09:52:34;10.98;;;9.25;;
55672;SDS011;41554;45.366;20.400;2023-04-24T09:55:00;14.55;;;9.57;;
55672;SDS011;41554;45.366;20.400;2023-04-24T09:57:26;19.63;;;9.43;;
55672;SDS011;41554;45.366;20.400;2023-04-24T09:59:53;15.65;;;8.75;;
55672;SDS011;41554;45.366;20.400;2023-04-24T10:02:19;10.18;;;8.55;;
55672;SDS011;41554;45.366;20.400;2023-04-24T10:05:03;21.35;;;8.35;;
55672;SDS011;41554;45.366;20.400;2023-04-24T10:07:32;9.68;;;7.93;;
55672;SDS011;41554;45.366;20.400;2023-04-24T10:09:58;11.20;;;9.07;;
55672;SDS011;41554;45.366;20.400;2023-04-24T10:12:25;16.52;;;9.05;;
55672;SDS011;41554;45.366;20.400;2023-04-24T10:14:51;15.82;;;13.20;;
55672;SDS011;41554;45.366;20.400;2023-04-24T10:17:18;19.23;;;15.50;;
55672;SDS011;41554;45.366;20.400;2023-04-24T10:19:45;13.30;;;10.90;;
55672;SDS011;41554;45.366;20.400;2023-04-24T10:22:11;20.63;;;14.02;;
55672;SDS011;41554;45.366;20.400;2023-04-24T10:24:37;24.70;;;15.48;;
55672;SDS011;41554;45.366;20.400;2023-04-24T10:27:04;25.02;;;15.75;;
55672;SDS011;41554;45.366;20.400;2023-04-24T10:29:31;13.45;;;10.85;;
55672;SDS011;41554;45.366;20.400;2023-04-24T10:31:57;25.20;;;13.65;;
55672;SDS011;41554;45.366;20.400;2023-04-24T10:34:23;21.52;;;12.50;;
55672;SDS011;41554;45.366;20.400;2023-04-24T10:36:52;18.60;;;14.20;;
55672;SDS011;41554;45.366;20.400;2023-04-24T10:39:19;16.55;;;10.90;;
55672;SDS011;41554;45.366;20.400;2023-04-24T10:41:48;14.77;;;10.88;;
55672;SDS011;41554;45.366;20.400;2023-04-24T10:44:14;12.32;;;9.30;;
55672;SDS011;41554;45.366;20.400;2023-04-24T10:46:46;16.77;;;9.48;;
55672;SDS011;41554;45.366;20.400;2023-04-24T10:49:19;13.68;;;11.18;;
55672;SDS011;41554;45.366;20.400;2023-04-24T10:51:53;14.35;;;10.00;;
55672;SDS011;41554;45.366;20.400;2023-04-24T10:54:23;13.95;;;9.80;;
55672;SDS011;41554;45.366;20.400;2023-04-24T10:56:50;14.48;;;9.18;;
55672;SDS011;41554;45.366;20.400;2023-04-24T10:59:27;15.52;;;10.00;;
55672;SDS011;41554;45.366;20.400;2023-04-24T11:01:53;16.38;;;12.55;;
55672;SDS011;41554;45.366;20.400;2023-04-24T11:04:32;10.13;;;8.80;;
55672;SDS011;41554;45.366;20.400;2023-04-24T11:07:00;12.45;;;9.55;;
55672;SDS011;41554;45.366;20.400;2023-04-24T11:09:35;15.60;;;12.80;;
55672;SDS011;41554;45.366;20.400;2023-04-24T11:12:06;12.55;;;10.13;;
55672;SDS011;41554;45.366;20.400;2023-04-24T11:17:34;14.38;;;10.18;;
55672;SDS011;41554;45.366;20.400;2023-04-24T11:20:10;15.63;;;11.95;;
55672;SDS011;41554;45.366;20.400;2023-04-24T11:22:37;15.38;;;11.25;;
55672;SDS011;41554;45.366;20.400;2023-04-24T11:25:05;13.20;;;10.55;;
55672;SDS011;41554;45.366;20.400;2023-04-24T11:27:32;17.58;;;12.45;;
55672;SDS011;41554;45.366;20.400;2023-04-24T11:30:03;17.05;;;10.27;;
55672;SDS011;41554;45.366;20.400;2023-04-24T11:37:38;19.65;;;11.13;;
55672;SDS011;41554;45.366;20.400;2023-04-24T11:40:05;14.25;;;11.77;;
55672;SDS011;41554;45.366;20.400;2023-04-24T11:42:38;15.55;;;11.95;;
55672;SDS011;41554;45.366;20.400;2023-04-24T11:45:08;23.38;;;9.20;;
55672;SDS011;41554;45.366;20.400;2023-04-24T11:47:35;12.95;;;11.40;;
55672;SDS011;41554;45.366;20.400;2023-04-24T11:50:01;13.98;;;12.05;;
55672;SDS011;41554;45.366;20.400;2023-04-24T11:52:28;15.63;;;12.10;;
55672;SDS011;41554;45.366;20.400;2023-04-24T11:54:54;17.52;;;10.65;;
55672;SDS011;41554;45.366;20.400;2023-04-24T11:57:21;27.08;;;12.02;;
55672;SDS011;41554;45.366;20.400;2023-04-24T11:59:47;27.50;;;24.88;;
55672;SDS011;41554;45.366;20.400;2023-04-24T12:02:20;16.27;;;12.68;;
55672;SDS011;41554;45.366;20.400;2023-04-24T12:04:46;22.55;;;12.70;;
55672;SDS011;41554;45.366;20.400;2023-04-24T12:07:12;13.93;;;10.15;;
55672;SDS011;41554;45.366;20.400;2023-04-24T12:09:48;18.25;;;12.63;;
55672;SDS011;41554;45.366;20.400;2023-04-24T12:12:17;18.05;;;10.55;;
55672;SDS011;41554;45.366;20.400;2023-04-24T12:14:50;19.17;;;11.40;;
55672;SDS011;41554;45.366;20.400;2023-04-24T12:17:23;18.27;;;12.35;;
55672;SDS011;41554;45.366;20.400;2023-04-24T12:19:49;14.02;;;9.82;;
55672;SDS011;41554;45.366;20.400;2023-04-24T12:22:15;15.77;;;12.05;;
55672;SDS011;41554;45.366;20.400;2023-04-24T12:25:00;14.50;;;10.82;;
55672;SDS011;41554;45.366;20.400;2023-04-24T12:27:30;18.35;;;11.60;;
55672;SDS011;41554;45.366;20.400;2023-04-24T12:29:57;20.75;;;11.13;;
55672;SDS011;41554;45.366;20.400;2023-04-24T12:32:24;17.08;;;10.50;;
55672;SDS011;41554;45.366;20.400;2023-04-24T12:34:51;13.55;;;12.05;;
55672;SDS011;41554;45.366;20.400;2023-04-24T12:37:17;15.68;;;13.25;;
55672;SDS011;41554;45.366;20.400;2023-04-24T12:39:59;12.00;;;10.82;;
55672;SDS011;41554;45.366;20.400;2023-04-24T12:42:26;28.83;;;15.20;;
55672;SDS011;41554;45.366;20.400;2023-04-24T12:44:55;28.58;;;12.20;;
55672;SDS011;41554;45.366;20.400;2023-04-24T12:47:22;14.70;;;10.27;;
55672;SDS011;41554;45.366;20.400;2023-04-24T12:49:48;18.48;;;11.73;;
55672;SDS011;41554;45.366;20.400;2023-04-24T12:52:24;18.42;;;11.60;;
55672;SDS011;41554;45.366;20.400;2023-04-24T12:54:52;32.35;;;22.50;;
55672;SDS011;41554;45.366;20.400;2023-04-24T12:57:18;31.60;;;22.85;;
55672;SDS011;41554;45.366;20.400;2023-04-24T12:59:44;21.70;;;12.45;;
55672;SDS011;41554;45.366;20.400;2023-04-24T13:02:10;19.48;;;10.93;;
55672;SDS011;41554;45.366;20.400;2023-04-24T13:04:37;16.17;;;12.30;;
55672;SDS011;41554;45.366;20.400;2023-04-24T13:07:03;13.70;;;11.55;;
55672;SDS011;41554;45.366;20.400;2023-04-24T13:09:29;14.00;;;11.60;;
55672;SDS011;41554;45.366;20.400;2023-04-24T13:11:58;15.30;;;10.85;;
55672;SDS011;41554;45.366;20.400;2023-04-24T13:14:25;19.35;;;12.25;;
55672;SDS011;41554;45.366;20.400;2023-04-24T13:16:52;16.73;;;9.73;;
55672;SDS011;41554;45.366;20.400;2023-04-24T13:19:18;17.55;;;10.70;;
55672;SDS011;41554;45.366;20.400;2023-04-24T13:21:44;19.00;;;11.80;;
55672;SDS011;41554;45.366;20.400;2023-04-24T13:24:10;13.57;;;10.43;;
55672;SDS011;41554;45.366;20.400;2023-04-24T13:26:37;14.85;;;10.45;;
55672;SDS011;41554;45.366;20.400;2023-04-24T13:29:04;19.23;;;13.45;;
55672;SDS011;41554;45.366;20.400;2023-04-24T13:31:30;15.43;;;11.65;;
55672;SDS011;41554;45.366;20.400;2023-04-24T13:33:56;20.67;;;15.05;;
55672;SDS011;41554;45.366;20.400;2023-04-24T13:36:22;27.55;;;13.43;;
55672;SDS011;41554;45.366;20.400;2023-04-24T13:38:48;13.73;;;9.80;;
55672;SDS011;41554;45.366;20.400;2023-04-24T13:41:14;19.65;;;10.63;;
55672;SDS011;41554;45.366;20.400;2023-04-24T13:43:40;17.05;;;11.52;;
55672;SDS011;41554;45.366;20.400;2023-04-24T13:46:07;17.10;;;10.13;;
55672;SDS011;41554;45.366;20.400;2023-04-24T13:48:34;12.80;;;9.93;;
55672;SDS011;41554;45.366;20.400;2023-04-24T13:51:00;15.32;;;11.07;;
55672;SDS011;41554;45.366;20.400;2023-04-24T13:53:26;13.02;;;9.50;;
55672;SDS011;41554;45.366;20.400;2023-04-24T13:55:52;23.23;;;11.82;;
55672;SDS011;41554;45.366;20.400;2023-04-24T13:58:18;15.00;;;11.73;;
55672;SDS011;41554;45.366;20.400;2023-04-24T14:00:44;14.82;;;10.40;;
55672;SDS011;41554;45.366;20.400;2023-04-24T14:03:10;17.80;;;10.35;;
55672;SDS011;41554;45.366;20.400;2023-04-24T14:05:36;16.88;;;11.18;;
55672;SDS011;41554;45.366;20.400;2023-04-24T14:08:02;13.10;;;10.93;;
55672;SDS011;41554;45.366;20.400;2023-04-24T14:10:28;12.52;;;9.63;;
55672;SDS011;41554;45.366;20.400;2023-04-24T14:12:54;15.52;;;12.07;;
55672;SDS011;41554;45.366;20.400;2023-04-24T14:15:21;12.27;;;9.50;;
55672;SDS011;41554;45.366;20.400;2023-04-24T14:17:47;16.60;;;8.85;;
55672;SDS011;41554;45.366;20.400;2023-04-24T14:20:14;12.90;;;8.50;;
55672;SDS011;41554;45.366;20.400;2023-04-24T14:22:40;12.40;;;8.45;;
55672;SDS011;41554;45.366;20.400;2023-04-24T14:25:07;10.10;;;7.22;;
55672;SDS011;41554;45.366;20.400;2023-04-24T14:27:33;20.42;;;10.43;;